createdAt,value
2024-05-09T00:01:15.873Z,12.83
2024-05-09T00:06:18.237Z,12.73
2024-05-09T00:11:21.165Z,12.61
2024-05-09T00:16:23.813Z,12.52
2024-05-09T00:21:26.020Z,12.47
2024-05-09T00:26:28.376Z,12.41
2024-05-09T00:31:30.807Z,12.36
2024-05-09T00:36:33.200Z,12.33
2024-05-09T00:41:35.759Z,12.29
2024-05-09T00:46:39.142Z,12.25
2024-05-09T00:51:43.493Z,12.20
2024-05-09T00:56:46.519Z,12.20
2024-05-09T01:01:50.074Z,12.19
2024-05-09T01:06:52.741Z,12.17
2024-05-09T01:11:55.450Z,12.15
2024-05-09T01:16:58.068Z,12.09
2024-05-09T01:22:00.858Z,12.00
2024-05-09T01:27:03.300Z,11.94
2024-05-09T01:32:08.200Z,11.89
2024-05-09T01:37:10.923Z,11.86
2024-05-09T01:42:13.406Z,11.88
2024-05-09T01:47:15.758Z,11.85
2024-05-09T01:52:18.564Z,11.79
2024-05-09T01:57:20.916Z,11.69
2024-05-09T02:02:23.221Z,11.63
2024-05-09T02:07:26.636Z,11.55
2024-05-09T02:12:28.742Z,11.47
2024-05-09T02:17:31.229Z,11.39
2024-05-09T02:22:33.500Z,11.33
2024-05-09T02:27:35.403Z,11.28
2024-05-09T02:32:37.642Z,11.22
2024-05-09T02:37:39.716Z,11.17
2024-05-09T02:42:41.962Z,11.14
2024-05-09T02:47:44.495Z,11.11
2024-05-09T02:52:46.733Z,11.12
2024-05-09T02:57:48.904Z,11.13
2024-05-09T03:02:51.164Z,11.10
2024-05-09T03:07:53.616Z,11.06
2024-05-09T03:12:56.061Z,10.99
2024-05-09T03:18:01.611Z,10.91
2024-05-09T03:23:05.488Z,10.86
2024-05-09T03:28:08.404Z,10.84
2024-05-09T03:33:19.362Z,10.85
2024-05-09T03:38:22.960Z,10.87
2024-05-09T03:43:26.039Z,10.87
2024-05-09T03:48:28.558Z,10.90
2024-05-09T03:53:32.319Z,10.94
2024-05-09T03:58:37.986Z,10.96
2024-05-09T04:03:40.490Z,11.02
2024-05-09T04:08:43.254Z,11.04
2024-05-09T04:13:45.777Z,11.07
2024-05-09T04:18:48.602Z,11.09
2024-05-09T04:23:53.665Z,11.12
2024-05-09T04:28:56.273Z,11.13
2024-05-09T04:33:58.931Z,11.18
2024-05-09T04:39:01.901Z,11.20
2024-05-09T04:44:04.655Z,11.24
2024-05-09T04:49:07.793Z,11.34
2024-05-09T04:54:15.769Z,11.43
2024-05-09T04:59:26.928Z,11.51
2024-05-09T05:04:30.264Z,11.57
2024-05-09T05:09:33.047Z,11.63
2024-05-09T05:14:35.359Z,11.72
2024-05-09T05:19:39.244Z,11.82
2024-05-09T05:24:41.763Z,11.90
2024-05-09T05:29:44.158Z,12.03
2024-05-09T05:34:46.780Z,12.17
2024-05-09T05:40:40.966Z,12.34
2024-05-09T05:45:43.657Z,12.51
2024-05-09T05:50:46.095Z,12.67
2024-05-09T05:55:48.498Z,12.81
2024-05-09T06:00:50.950Z,12.93
2024-05-09T06:05:53.234Z,13.09
2024-05-09T06:17:46.802Z,13.44
2024-05-09T06:22:49.568Z,13.59
2024-05-09T06:27:52.385Z,13.76
2024-05-09T06:32:54.986Z,14.00
2024-05-09T06:37:58.676Z,14.10
2024-05-09T06:43:01.164Z,14.30
2024-05-09T06:48:03.924Z,14.47
2024-05-09T06:53:07.668Z,14.68
2024-05-09T06:58:10.557Z,14.87
2024-05-09T07:03:17.092Z,15.05
2024-05-09T07:08:21.065Z,15.13
2024-05-09T07:13:23.617Z,15.21
2024-05-09T07:18:25.871Z,15.35
2024-05-09T07:23:28.824Z,15.61
2024-05-09T07:28:31.080Z,15.86
2024-05-09T07:33:33.598Z,15.95
2024-05-09T07:38:36.632Z,15.91
2024-05-09T07:43:39.142Z,15.91
2024-05-09T07:53:50.919Z,16.04
2024-05-09T07:58:56.047Z,16.03
2024-05-09T08:03:59.315Z,16.04
2024-05-09T08:09:05.474Z,16.16
2024-05-09T08:14:10.962Z,16.38
2024-05-09T08:19:13.361Z,16.57
2024-05-09T08:24:15.810Z,16.66
2024-05-09T08:29:18.034Z,16.77
2024-05-09T08:34:20.524Z,16.87
2024-05-09T08:39:22.964Z,16.97
2024-05-09T08:44:27.196Z,17.05
2024-05-09T08:49:31.185Z,17.14
2024-05-09T08:54:34.050Z,17.19
2024-05-09T08:59:45.407Z,17.29
2024-05-09T09:05:03.816Z,17.33
2024-05-09T09:10:12.914Z,17.47
2024-05-09T09:15:17.622Z,17.66
2024-05-09T09:20:26.348Z,17.75
2024-05-09T09:25:39.986Z,17.80
2024-05-09T09:30:43.202Z,17.91
2024-05-09T09:35:45.909Z,17.78
2024-05-09T09:40:50.215Z,17.62
2024-05-09T09:45:55.805Z,17.33
2024-05-09T09:50:58.686Z,17.19
2024-05-09T09:56:02.367Z,17.08
2024-05-09T10:01:30.585Z,17.37
2024-05-09T10:06:43.221Z,17.80
2024-05-09T10:11:51.804Z,18.26
2024-05-09T10:17:05.515Z,18.30
2024-05-09T10:22:11.423Z,18.03
2024-05-09T10:33:53.727Z,17.71
2024-05-09T10:38:56.499Z,17.57
2024-05-09T10:43:59.051Z,17.52
2024-05-09T10:49:05.312Z,17.72
2024-05-09T10:54:09.629Z,17.94
2024-05-09T10:59:14.610Z,18.04
2024-05-09T11:04:17.506Z,18.17
2024-05-09T11:09:20.643Z,18.25
2024-05-09T11:14:23.134Z,18.31
2024-05-09T11:19:34.501Z,18.38
2024-05-09T11:24:37.205Z,18.23
2024-05-09T11:29:44.728Z,18.05
2024-05-09T11:34:47.501Z,18.22
2024-05-09T11:39:50.619Z,18.14
2024-05-09T11:44:53.137Z,18.00
2024-05-09T11:49:57.231Z,17.88
2024-05-09T11:54:59.878Z,17.73
2024-05-09T12:00:03.198Z,17.78
2024-05-09T12:05:06.998Z,17.84
2024-05-09T12:10:16.462Z,17.74
2024-05-09T12:15:21.893Z,17.66
2024-05-09T12:20:32.380Z,17.70
2024-05-09T12:25:40.008Z,17.86
2024-05-09T12:30:43.004Z,17.86
2024-05-09T12:35:47.353Z,17.80
2024-05-09T12:40:51.940Z,17.96
2024-05-09T12:45:54.404Z,18.03
2024-05-09T12:50:58.035Z,18.18
2024-05-09T12:56:02.481Z,18.28
2024-05-09T13:01:08.789Z,18.37
2024-05-09T13:06:11.917Z,18.37
2024-05-09T13:11:14.700Z,18.40
2024-05-09T13:16:17.009Z,18.42
2024-05-09T13:21:19.230Z,18.51
2024-05-09T13:26:21.654Z,18.60
2024-05-09T13:31:24.269Z,18.65
2024-05-09T13:36:26.747Z,18.67
2024-05-09T13:41:28.862Z,18.66
2024-05-09T13:46:31.183Z,18.65
2024-05-09T13:51:34.656Z,18.67
2024-05-09T13:56:38.564Z,18.69
2024-05-09T14:01:41.024Z,18.74
2024-05-09T14:06:43.882Z,18.77
2024-05-09T14:11:46.474Z,18.82
2024-05-09T14:16:49.188Z,18.89
2024-05-09T14:21:51.464Z,18.95
2024-05-09T14:26:53.686Z,19.02
2024-05-09T14:31:56.157Z,19.14
2024-05-09T14:36:59.248Z,19.25
2024-05-09T14:42:01.473Z,19.33
2024-05-09T14:47:03.950Z,19.40
2024-05-09T14:52:06.369Z,19.42
2024-05-09T14:57:09.125Z,19.36
2024-05-09T15:03:02.942Z,19.37
2024-05-09T15:08:08.134Z,19.30
2024-05-09T15:13:12.299Z,19.25
2024-05-09T15:18:16.492Z,19.20
2024-05-09T15:23:19.129Z,19.18
2024-05-09T15:28:21.969Z,19.15
2024-05-09T15:33:24.806Z,19.16
2024-05-09T15:38:27.933Z,19.16
2024-05-09T15:43:58.358Z,19.16
2024-05-09T16:09:51.415Z,18.92
2024-05-09T16:14:53.722Z,18.88
2024-05-09T16:19:57.289Z,18.84
2024-05-09T16:24:59.688Z,18.82
2024-05-09T16:30:07.192Z,18.80
2024-05-09T16:35:14.598Z,18.71
2024-05-09T16:53:52.287Z,18.51
2024-05-09T17:05:50.853Z,18.44
2024-05-09T17:10:55.802Z,18.40
2024-05-09T17:15:58.441Z,18.38
2024-05-09T17:21:01.177Z,18.34
2024-05-09T17:26:03.547Z,18.30
2024-05-09T17:31:07.780Z,18.23
2024-05-09T17:36:10.475Z,18.17
2024-05-09T17:41:12.585Z,18.06
2024-05-09T17:46:15.109Z,17.98
2024-05-09T17:51:17.661Z,17.88
2024-05-09T17:56:19.980Z,17.79
2024-05-09T18:01:24.164Z,17.73
2024-05-09T18:06:26.748Z,17.64
2024-05-09T18:11:29.180Z,17.52
2024-05-09T18:16:31.287Z,17.41
2024-05-09T18:21:33.743Z,17.30
2024-05-09T18:26:36.753Z,17.18
2024-05-09T18:31:40.383Z,17.05
2024-05-09T18:36:43.061Z,16.93
2024-05-09T18:41:45.254Z,16.81
2024-05-09T18:46:47.304Z,16.73
2024-05-09T18:51:49.408Z,16.65
2024-05-09T18:56:51.593Z,16.57
2024-05-09T19:01:53.809Z,16.49
2024-05-09T19:06:56.336Z,16.44
2024-05-09T19:12:03.331Z,16.36
2024-05-09T19:17:05.540Z,16.27
2024-05-09T19:22:08.206Z,16.19
2024-05-09T19:27:10.578Z,16.10
2024-05-09T19:32:12.693Z,16.04
2024-05-09T19:37:14.996Z,15.98
2024-05-09T19:42:18.147Z,15.93
2024-05-09T19:47:20.688Z,15.90
2024-05-09T19:52:22.917Z,15.85
2024-05-09T19:57:27.541Z,15.79
2024-05-09T20:02:29.898Z,15.74
2024-05-09T20:07:34.393Z,15.69
2024-05-09T20:12:38.023Z,15.63
2024-05-09T20:17:40.192Z,15.60
2024-05-09T20:22:45.319Z,15.57
2024-05-09T20:27:47.540Z,15.54
2024-05-09T20:32:49.742Z,15.51
2024-05-09T20:37:52.022Z,15.46
2024-05-09T20:42:54.259Z,15.44
2024-05-09T20:47:57.976Z,15.40
2024-05-09T20:53:00.359Z,15.36
2024-05-09T20:58:02.566Z,15.33
2024-05-09T21:03:05.120Z,15.29
2024-05-09T21:08:08.076Z,15.24
2024-05-09T21:13:10.319Z,15.20
2024-05-09T21:18:12.702Z,15.16
2024-05-09T21:23:14.966Z,15.10
2024-05-09T21:28:17.321Z,15.06
2024-05-09T21:33:19.618Z,15.00
2024-05-09T21:38:22.218Z,14.97
2024-05-09T21:43:26.938Z,14.94
2024-05-09T21:48:29.092Z,14.89
2024-05-09T21:53:31.928Z,14.85
2024-05-09T21:58:34.560Z,14.79
2024-05-09T22:03:37.150Z,14.72
2024-05-09T22:08:39.796Z,14.63
2024-05-09T22:13:41.864Z,14.57
2024-05-09T22:18:47.139Z,14.51
2024-05-09T22:23:49.641Z,14.47
2024-05-09T22:28:51.920Z,14.44
2024-05-09T22:33:54.333Z,14.40
2024-05-09T22:38:57.072Z,14.37
2024-05-09T22:43:59.927Z,14.35
2024-05-09T22:49:02.649Z,14.33
2024-05-09T22:54:05.875Z,14.30
2024-05-09T22:59:08.191Z,14.27
2024-05-09T23:04:10.408Z,14.21
2024-05-09T23:09:13.239Z,14.17
2024-05-09T23:14:15.483Z,14.15
2024-05-09T23:19:17.690Z,14.11
2024-05-09T23:24:19.964Z,14.08
2024-05-09T23:29:22.213Z,14.04
2024-05-09T23:34:24.553Z,13.99
2024-05-09T23:39:27.358Z,13.94
2024-05-09T23:44:29.513Z,13.91
2024-05-09T23:49:31.898Z,13.86
2024-05-09T23:54:34.340Z,13.84
2024-05-09T23:59:36.459Z,13.77
